Time;durP1;ratioP1;P1;durP2;ratioP2;P2;SDS_P1;SDS_P2;PMS_P1;PMS_P2;Temp;Humidity;BMP_temperature;BMP_pressure;BME280_temperature;BME280_humidity;BME280_pressure;Samples;Min_cycle;Max_cycle;Signal;HPM_P1;HPM_P2
2021/08/16 00:01:42;;;;;;;8.60;2.25;;;;;;;20.51;50.36;100906.34;4892807;28;124137;-68
2021/08/16 00:04:09;;;;;;;11.10;2.42;;;;;;;20.48;50.33;100917.38;4892863;28;124622;-68
2021/08/16 00:06:37;;;;;;;7.47;2.00;;;;;;;20.45;50.22;100917.63;4889267;28;115284;-68
2021/08/16 00:09:07;;;;;;;9.15;2.33;;;;;;;20.42;50.52;100914.22;4887484;28;114825;-68
2021/08/16 00:11:35;;;;;;;8.10;2.47;;;;;;;20.41;50.50;100912.50;4893231;28;124319;-68
2021/08/16 00:14:02;;;;;;;6.30;2.08;;;;;;;20.38;50.31;100912.78;4890609;28;124765;-68
2021/08/16 00:16:31;;;;;;;7.63;2.22;;;;;;;20.36;50.47;100901.31;4890385;28;114210;-68
2021/08/16 00:18:58;;;;;;;6.07;2.13;;;;;;;20.35;50.51;100906.81;4872806;28;114807;-68
2021/08/16 00:21:26;;;;;;;6.80;2.33;;;;;;;20.31;50.41;100900.84;4893168;28;124078;-68
2021/08/16 00:23:53;;;;;;;5.55;2.00;;;;;;;20.30;50.48;100899.13;4883809;28;122554;-68
2021/08/16 00:26:20;;;;;;;7.13;2.60;;;;;;;20.28;50.61;100901.09;4891534;28;114905;-68
2021/08/16 00:28:47;;;;;;;8.15;2.15;;;;;;;20.27;50.79;100894.03;4876504;28;114023;-69
2021/08/16 00:31:14;;;;;;;6.22;2.50;;;;;;;20.25;50.56;100890.59;4892360;28;124353;-68
2021/08/16 00:33:41;;;;;;;5.63;1.98;;;;;;;20.23;50.91;100887.19;4892301;28;124096;-69
2021/08/16 00:36:09;;;;;;;8.68;2.10;;;;;;;20.24;50.65;100894.28;4892794;28;114128;-69
2021/08/16 00:38:36;;;;;;;8.05;2.13;;;;;;;20.23;50.81;100892.59;4893173;28;113593;-69
2021/08/16 00:41:03;;;;;;;8.30;2.08;;;;;;;20.20;50.75;100885.59;4892268;28;124121;-68
2021/08/16 00:43:30;;;;;;;6.55;2.50;;;;;;;20.19;50.66;100886.59;4891841;28;124195;-69
2021/08/16 00:45:57;;;;;;;7.78;2.00;;;;;;;20.18;50.90;100900.19;4890972;28;113264;-68
2021/08/16 00:48:25;;;;;;;10.40;2.17;;;;;;;20.17;50.90;100893.06;4873672;28;112663;-69
2021/08/16 00:50:52;;;;;;;6.43;2.17;;;;;;;20.16;50.89;100888.69;4892878;28;124838;-68
2021/08/16 00:53:20;;;;;;;12.13;2.70;;;;;;;20.15;50.84;100890.50;4891718;28;124276;-68
2021/08/16 00:55:48;;;;;;;8.10;2.65;;;;;;;20.15;51.15;100889.66;4892402;28;115101;-69
2021/08/16 00:58:15;;;;;;;8.98;2.33;;;;;;;20.16;51.18;100897.63;4892403;28;115682;-69
2021/08/16 01:00:43;;;;;;;7.00;2.55;;;;;;;20.17;51.04;100898.47;4889893;28;123940;-68
2021/08/16 01:03:10;;;;;;;9.68;2.20;;;;;;;20.19;51.15;100901.88;4891927;28;123904;-69
2021/08/16 01:05:37;;;;;;;7.03;2.13;;;;;;;20.21;51.37;100899.91;4890654;28;114150;-69
2021/08/16 01:08:05;;;;;;;8.40;2.20;;;;;;;20.24;51.26;100899.66;4890619;28;114290;-69
2021/08/16 01:10:34;;;;;;;9.05;2.95;;;;;;;20.26;51.37;100903.06;4875004;28;123923;-68
2021/08/16 01:13:01;;;;;;;9.40;2.22;;;;;;;20.31;51.46;100903.53;4892928;28;123719;-69
2021/08/16 01:15:28;;;;;;;8.63;2.53;;;;;;;20.32;51.16;100897.16;4882653;28;113578;-69
2021/08/16 01:17:56;;;;;;;7.28;2.30;;;;;;;20.35;51.71;100902.28;4896855;28;114507;-69
2021/08/16 01:20:23;;;;;;;7.63;2.20;;;;;;;20.36;51.55;100897.75;4892774;28;124051;-69
2021/08/16 01:22:50;;;;;;;7.95;2.63;;;;;;;20.37;51.50;100894.94;4893101;28;124461;-69
2021/08/16 01:25:17;;;;;;;8.30;2.20;;;;;;;20.38;51.45;100896.66;4876019;28;114136;-69
2021/08/16 01:27:45;;;;;;;7.75;2.28;;;;;;;20.38;51.71;100902.03;4894112;28;113669;-69
2021/08/16 01:30:16;;;;;;;10.73;2.35;;;;;;;20.39;51.68;100895.63;4893683;28;124534;-69
2021/08/16 01:32:44;;;;;;;6.80;2.50;;;;;;;20.40;51.65;100900.06;4876933;28;122791;-69
2021/08/16 01:35:11;;;;;;;7.60;2.70;;;;;;;20.41;51.53;100887.44;4894368;28;114063;-69
2021/08/16 01:37:39;;;;;;;11.88;3.03;;;;;;;20.42;51.66;100892.69;4896293;28;114190;-69
2021/08/16 01:40:12;;;;;;;8.02;2.60;;;;;;;20.43;51.70;100888.16;4893905;28;124255;-69
2021/08/16 01:42:40;;;;;;;6.50;2.28;;;;;;;20.44;51.68;100889.88;4876004;28;123620;-69
2021/08/16 01:45:08;;;;;;;12.05;3.20;;;;;;;20.46;51.79;100892.44;4878384;28;115257;-69
2021/08/16 01:47:35;;;;;;;6.68;2.63;;;;;;;20.44;51.72;100889.88;4896241;28;114820;-68
2021/08/16 01:50:03;;;;;;;11.13;2.72;;;;;;;20.46;51.77;100887.06;4894970;28;123915;-68
2021/08/16 01:52:30;;;;;;;9.18;2.78;;;;;;;20.46;51.64;100892.44;4893116;28;124628;-68
2021/08/16 01:54:57;;;;;;;7.05;2.40;;;;;;;20.47;51.66;100894.13;4878297;28;113500;-68
2021/08/16 01:57:24;;;;;;;9.68;3.20;;;;;;;20.47;51.88;100888.75;4895757;28;113113;-68
2021/08/16 01:59:51;;;;;;;7.63;2.83;;;;;;;20.46;51.84;100892.44;4878589;28;124268;-68
2021/08/16 02:02:18;;;;;;;8.90;3.05;;;;;;;20.46;51.79;100881.69;4895079;28;124715;-69
2021/08/16 02:04:47;;;;;;;8.48;2.80;;;;;;;20.45;51.79;100879.97;4875649;28;114530;-68
2021/08/16 02:07:15;;;;;;;9.20;2.78;;;;;;;20.45;52.04;100874.59;4907316;23;113678;-66
2021/08/16 02:09:42;;;;;;;7.38;2.50;;;;;;;20.45;51.97;100869.22;4893814;28;127465;-66
2021/08/16 02:12:09;;;;;;;11.77;2.92;;;;;;;20.43;52.11;100867.47;4881539;28;122730;-67
2021/08/16 02:14:37;;;;;;;9.23;3.08;;;;;;;20.42;52.00;100871.19;4889863;28;114504;-67
2021/08/16 02:17:04;;;;;;;7.95;2.65;;;;;;;20.42;52.00;100870.34;4892154;28;114272;-67
2021/08/16 02:19:32;;;;;;;7.78;2.70;;;;;;;20.41;52.04;100858.69;4894021;28;123863;-67
2021/08/16 02:21:59;;;;;;;9.52;2.85;;;;;;;20.39;52.14;100863.38;4894325;28;123566;-66
2021/08/16 02:24:26;;;;;;;5.82;2.53;;;;;;;20.37;52.15;100857.25;4876675;28;113178;-67
2021/08/16 02:26:53;;;;;;;8.45;3.03;;;;;;;20.37;52.24;100861.81;4894563;28;114564;-67
2021/08/16 02:29:20;;;;;;;12.63;3.10;;;;;;;20.35;52.40;100864.63;4893520;28;124134;-67
2021/08/16 02:31:47;;;;;;;7.25;2.72;;;;;;;20.34;52.41;100865.63;4878274;28;123301;-67
2021/08/16 02:34:15;;;;;;;9.50;3.03;;;;;;;20.34;52.21;100868.31;4875415;28;115098;-67
2021/08/16 02:36:42;;;;;;;7.60;2.40;;;;;;;20.33;52.19;100861.22;4897141;28;115007;-67
2021/08/16 02:39:09;;;;;;;7.63;2.80;;;;;;;20.31;52.45;100868.56;4878426;28;123911;-66
2021/08/16 02:41:38;;;;;;;7.65;2.92;;;;;;;20.29;52.44;100865.16;4893908;28;124132;-67
2021/08/16 02:44:05;;;;;;;9.90;2.35;;;;;;;20.29;52.45;100870.53;4893012;28;114533;-66
2021/08/16 02:46:33;;;;;;;7.57;2.65;;;;;;;20.28;52.52;100868.81;4895195;28;114201;-67
2021/08/16 02:49:00;;;;;;;9.20;3.20;;;;;;;20.27;52.59;100867.13;4893045;28;124320;-67
2021/08/16 02:51:27;;;;;;;11.43;3.00;;;;;;;20.27;52.55;100861.75;4891980;28;123796;-67
2021/08/16 02:53:55;;;;;;;10.18;2.95;;;;;;;20.25;52.83;100855.66;4893275;28;114740;-67
2021/08/16 02:56:22;;;;;;;11.10;2.90;;;;;;;20.24;52.60;100862.00;4896108;28;114285;-67
2021/08/16 02:58:49;;;;;;;8.55;3.10;;;;;;;20.24;52.61;100851.25;4890928;28;124219;-67
2021/08/16 03:01:17;;;;;;;8.13;2.70;;;;;;;20.22;52.65;100853.22;4893089;28;123936;-67
2021/08/16 03:03:44;;;;;;;9.50;2.70;;;;;;;20.19;52.64;100856.16;4892645;28;114698;-67
2021/08/16 03:06:12;;;;;;;8.52;2.95;;;;;;;20.16;52.79;100848.38;4895678;28;114533;-67
2021/08/16 03:08:39;;;;;;;8.60;2.92;;;;;;;20.14;52.96;100844.97;4893308;28;123972;-67
2021/08/16 03:11:07;;;;;;;11.27;3.50;;;;;;;20.13;52.94;100848.63;4886580;28;123954;-67
2021/08/16 03:13:35;;;;;;;10.60;3.15;;;;;;;20.11;52.85;100845.22;4890628;28;114385;-68
2021/08/16 03:16:02;;;;;;;8.48;3.13;;;;;;;20.11;52.99;100850.59;4895718;28;114734;-67
2021/08/16 03:18:29;;;;;;;8.93;3.58;;;;;;;20.10;53.04;100848.88;4892934;28;124094;-67
2021/08/16 03:20:57;;;;;;;9.18;3.22;;;;;;;20.09;53.20;100847.19;4894843;28;124663;-67
2021/08/16 03:23:24;;;;;;;11.93;3.75;;;;;;;20.09;53.13;100852.56;4891889;28;115597;-67
2021/08/16 03:25:51;;;;;;;8.70;3.40;;;;;;;20.09;53.27;100852.56;4895054;28;115382;-67
2021/08/16 03:28:18;;;;;;;12.85;3.80;;;;;;;20.09;53.38;100847.19;4891375;28;123892;-67
2021/08/16 03:30:48;;;;;;;13.65;3.42;;;;;;;20.09;53.38;100853.41;4878138;28;123854;-67
2021/08/16 03:33:16;;;;;;;12.88;3.47;;;;;;;20.10;53.50;100859.63;4892443;28;114550;-67
2021/08/16 03:35:43;;;;;;;11.18;3.72;;;;;;;20.11;53.62;100861.34;4877871;28;113539;-67
2021/08/16 03:38:12;;;;;;;11.48;3.97;;;;;;;20.11;53.45;100861.34;4894920;28;124646;-67
2021/08/16 03:40:39;;;;;;;12.57;4.13;;;;;;;20.12;53.54;100857.69;4875712;28;124332;-67
2021/08/16 03:43:08;;;;;;;8.63;4.40;;;;;;;20.12;53.71;100863.06;4892748;28;115581;-67
2021/08/16 03:45:36;;;;;;;10.18;4.60;;;;;;;20.12;53.53;100863.06;4894210;28;113402;-67
2021/08/16 03:48:03;;;;;;;8.70;4.28;;;;;;;20.11;53.77;100855.97;4893999;28;124103;-67
2021/08/16 03:50:30;;;;;;;12.68;4.88;;;;;;;20.10;53.61;100855.13;4894409;28;124036;-67
2021/08/16 03:52:57;;;;;;;10.60;4.50;;;;;;;20.11;53.82;100861.34;4895560;28;115096;-67
2021/08/16 03:55:25;;;;;;;12.82;4.32;;;;;;;20.11;53.80;100855.97;4893209;28;114456;-67
2021/08/16 03:57:52;;;;;;;7.38;4.13;;;;;;;20.14;53.88;100850.34;4892044;28;124780;-67
2021/08/16 04:00:21;;;;;;;11.63;5.55;;;;;;;20.14;53.88;100855.72;4891865;28;123934;-67
2021/08/16 04:02:48;;;;;;;11.95;5.32;;;;;;;20.14;54.04;100851.19;4890393;28;114652;-66
2021/08/16 04:05:15;;;;;;;12.00;5.43;;;;;;;20.13;54.00;100848.63;4895113;28;114256;-67
2021/08/16 04:07:44;;;;;;;11.73;5.50;;;;;;;20.15;53.98;100854.72;4893578;28;124435;-67
2021/08/16 04:10:12;;;;;;;9.65;5.50;;;;;;;20.14;53.97;100855.72;4876312;28;124029;-67
2021/08/16 04:12:40;;;;;;;12.95;5.95;;;;;;;20.14;54.15;100853.03;4889933;28;115085;-67
2021/08/16 04:15:11;;;;;;;13.65;5.50;;;;;;;20.14;54.20;100844.97;4892975;28;114812;-67
2021/08/16 04:17:39;;;;;;;10.82;5.75;;;;;;;20.14;54.23;100855.72;4890215;28;124413;-67
2021/08/16 04:20:07;;;;;;;13.48;5.82;;;;;;;20.13;54.18;100854.84;4889527;28;123647;-67
2021/08/16 04:22:35;;;;;;;9.57;5.60;;;;;;;20.12;54.12;100838.84;4889147;28;115180;-67
2021/08/16 04:25:06;;;;;;;12.80;5.97;;;;;;;20.12;54.45;100841.53;4891751;28;113942;-67
2021/08/16 04:27:34;;;;;;;13.50;6.10;;;;;;;20.12;54.21;100846.94;4889133;28;123960;-67
2021/08/16 04:30:01;;;;;;;12.45;5.97;;;;;;;20.14;54.45;100844.97;4889770;28;124004;-68
2021/08/16 04:32:29;;;;;;;11.90;5.63;;;;;;;20.14;54.30;100842.25;4870769;28;113153;-67
2021/08/16 04:34:56;;;;;;;10.73;5.75;;;;;;;20.15;54.26;100841.25;4874931;28;113649;-66
2021/08/16 04:37:23;;;;;;;12.88;6.07;;;;;;;20.15;54.49;100835.88;4891156;28;123921;-70
2021/08/16 04:39:50;;;;;;;12.95;6.32;;;;;;;20.16;54.56;100840.28;4868985;28;124304;-69
2021/08/16 04:42:18;;;;;;;12.30;6.38;;;;;;;20.16;54.58;100848.38;4891394;28;115225;-69
2021/08/16 04:44:45;;;;;;;18.15;6.85;;;;;;;20.17;54.55;100852.75;4892438;28;114650;-69
2021/08/16 04:47:13;;;;;;;14.45;6.47;;;;;;;20.16;54.44;100837.59;4889641;28;124260;-70
2021/08/16 04:49:40;;;;;;;12.00;6.28;;;;;;;20.16;54.56;100842.97;4892405;28;124700;-70
2021/08/16 04:52:14;;;;;;;13.60;6.68;;;;;;;20.15;54.71;100836.72;4892500;28;114268;-70
2021/08/16 04:54:41;;;;;;;15.70;6.67;;;;;;;20.18;54.62;100835.63;4892379;28;114107;-70
2021/08/16 04:57:09;;;;;;;13.90;6.55;;;;;;;20.17;54.69;100839.28;4872921;28;124010;-69
2021/08/16 04:59:36;;;;;;;16.33;6.43;;;;;;;20.17;54.54;100847.34;4893043;28;123916;-69
2021/08/16 05:02:03;;;;;;;15.02;6.32;;;;;;;20.16;54.76;100833.06;4891059;28;115777;-70
2021/08/16 05:04:30;;;;;;;13.57;6.20;;;;;;;20.16;54.68;100843.81;4890444;28;114826;-69
2021/08/16 05:06:57;;;;;;;14.43;6.53;;;;;;;20.15;54.77;100841.25;4890069;28;123980;-70
2021/08/16 05:09:24;;;;;;;11.88;6.43;;;;;;;20.15;54.98;100833.19;4859726;28;122276;-70
2021/08/16 05:11:52;;;;;;;14.52;6.35;;;;;;;20.15;55.08;100825.13;4890205;28;114332;-70
2021/08/16 05:14:19;;;;;;;13.35;6.32;;;;;;;20.16;54.93;100829.53;4891293;28;114342;-69
2021/08/16 05:16:46;;;;;;;12.25;6.53;;;;;;;20.15;54.95;100830.50;4892136;28;124630;-70
2021/08/16 05:19:13;;;;;;;14.70;6.60;;;;;;;20.17;55.16;100831.22;4873852;28;122728;-70
2021/08/16 05:21:42;;;;;;;12.90;6.57;;;;;;;20.19;55.20;100834.63;4895188;28;113882;-69
2021/08/16 05:24:09;;;;;;;16.90;6.55;;;;;;;20.21;55.21;100829.97;4892414;28;113952;-70
2021/08/16 05:26:36;;;;;;;17.80;6.82;;;;;;;20.22;55.25;100831.69;4893581;28;124233;-70
2021/08/16 05:29:04;;;;;;;12.55;7.63;;;;;;;20.25;55.41;100831.44;4891676;28;123748;-70
2021/08/16 05:31:31;;;;;;;16.00;7.38;;;;;;;20.29;55.33;100832.88;4891662;28;114994;-69
2021/08/16 05:33:59;;;;;;;15.23;6.82;;;;;;;20.33;55.50;100834.31;4891389;28;113970;-70
2021/08/16 05:36:27;;;;;;;17.58;7.28;;;;;;;20.37;55.34;100830.38;4873873;28;123009;-70
2021/08/16 05:38:54;;;;;;;14.43;7.22;;;;;;;20.40;55.41;100824.72;4891523;28;124051;-69
2021/08/16 05:41:21;;;;;;;17.02;8.27;;;;;;;20.45;55.46;100823.47;4894425;28;114164;-70
2021/08/16 05:43:48;;;;;;;12.90;7.47;;;;;;;20.48;55.47;100831.28;4891389;28;115339;-70
2021/08/16 05:46:15;;;;;;;13.32;7.30;;;;;;;20.51;55.33;100820.22;4893769;28;124161;-70
2021/08/16 05:48:43;;;;;;;16.10;8.07;;;;;;;20.53;55.44;100815.56;4892768;28;123720;-70
2021/08/16 05:51:10;;;;;;;16.13;8.30;;;;;;;20.55;55.42;100829.72;4891180;28;115103;-69
2021/08/16 05:53:37;;;;;;;15.63;8.15;;;;;;;20.59;55.37;100828.50;4890716;28;115285;-69
2021/08/16 05:56:04;;;;;;;15.65;8.32;;;;;;;20.61;55.23;100837.31;4893302;28;124123;-69
2021/08/16 05:58:32;;;;;;;16.92;8.85;;;;;;;20.62;55.52;100817.50;4874084;28;123858;-69
2021/08/16 06:00:59;;;;;;;16.45;7.88;;;;;;;20.64;55.35;100820.88;4891486;28;114334;-69
2021/08/16 06:03:26;;;;;;;13.23;8.10;;;;;;;20.68;55.45;100833.13;4893932;28;114378;-70
2021/08/16 06:05:53;;;;;;;13.93;7.93;;;;;;;20.72;55.62;100834.53;4874094;28;123354;-70
2021/08/16 06:08:21;;;;;;;17.90;8.68;;;;;;;20.76;55.36;100822.50;4893298;28;124267;-70
2021/08/16 06:10:48;;;;;;;17.10;8.50;;;;;;;20.83;55.42;100830.03;4890755;28;114203;-70
2021/08/16 06:13:15;;;;;;;16.67;8.93;;;;;;;20.88;55.50;100822.41;4876647;28;113895;-70
2021/08/16 06:15:42;;;;;;;13.93;7.82;;;;;;;20.94;55.50;100832.63;4893566;28;123265;-70
2021/08/16 06:18:09;;;;;;;12.13;7.78;;;;;;;20.98;55.46;100828.66;4888097;28;123598;-71
2021/08/16 06:20:37;;;;;;;15.73;8.45;;;;;;;21.02;55.46;100824.72;4888121;28;115161;-71
2021/08/16 06:23:04;;;;;;;14.90;8.00;;;;;;;21.06;55.41;100830.66;4893324;28;114149;-70
2021/08/16 06:25:31;;;;;;;14.30;7.93;;;;;;;21.10;55.46;100830.28;4895099;28;124381;-71
2021/08/16 06:27:59;;;;;;;15.20;7.53;;;;;;;21.12;55.18;100835.53;4876073;28;124881;-70
2021/08/16 06:30:26;;;;;;;14.35;7.88;;;;;;;21.13;55.15;100827.28;4894113;28;114128;-70
2021/08/16 06:32:53;;;;;;;14.48;7.47;;;;;;;21.14;55.23;100839.78;4894581;28;114352;-71
2021/08/16 06:35:21;;;;;;;17.50;8.07;;;;;;;21.16;55.04;100837.78;4893703;28;124177;-70
2021/08/16 06:37:48;;;;;;;11.25;7.90;;;;;;;21.18;55.14;100830.44;4877241;28;123935;-71
2021/08/16 06:40:16;;;;;;;15.50;8.00;;;;;;;21.19;55.13;100832.13;4893462;28;115257;-72
2021/08/16 06:42:44;;;;;;;15.23;8.13;;;;;;;21.21;55.09;100840.09;4878215;28;114146;-70
2021/08/16 06:45:11;;;;;;;16.98;7.82;;;;;;;21.22;55.33;100846.31;4892328;28;123967;-70
2021/08/16 06:47:39;;;;;;;14.80;8.57;;;;;;;21.23;55.24;100842.63;4893626;28;123858;-71
2021/08/16 06:50:07;;;;;;;14.98;8.23;;;;;;;21.25;55.20;100840.63;4879226;28;113769;-71
2021/08/16 06:52:35;;;;;;;17.08;8.25;;;;;;;21.27;55.31;100841.38;4894242;28;114312;-71
2021/08/16 06:55:03;;;;;;;18.42;8.63;;;;;;;21.31;55.08;100840.09;4894056;28;124407;-71
2021/08/16 06:57:32;;;;;;;15.15;8.50;;;;;;;21.34;55.16;100850.59;4891856;28;123420;-70
2021/08/16 07:00:00;;;;;;;15.00;8.35;;;;;;;21.36;55.14;100838.69;4893597;28;114624;-70
2021/08/16 07:02:27;;;;;;;17.52;8.32;;;;;;;21.41;55.15;100845.50;4893793;28;113951;-70
2021/08/16 07:04:55;;;;;;;16.88;8.60;;;;;;;21.42;55.09;100836.41;4877975;28;123335;-70
2021/08/16 07:07:22;;;;;;;12.60;8.18;;;;;;;21.43;55.01;100849.75;4862723;28;123621;-71
2021/08/16 07:09:49;;;;;;;14.52;7.65;;;;;;;21.45;55.15;100841.56;4893259;28;114095;-71
2021/08/16 07:12:18;;;;;;;17.75;8.25;;;;;;;21.44;55.18;100851.50;4877905;28;113240;-70
2021/08/16 07:14:46;;;;;;;15.25;8.50;;;;;;;21.44;55.06;100851.50;4871068;28;123307;-70
2021/08/16 07:17:13;;;;;;;13.73;8.18;;;;;;;21.44;55.00;100851.50;4893367;28;123898;-70
2021/08/16 07:19:40;;;;;;;15.98;8.43;;;;;;;21.42;55.14;100848.06;4894883;28;114130;-70
2021/08/16 07:22:08;;;;;;;13.55;7.68;;;;;;;21.40;55.04;100844.66;4876579;28;114304;-71
2021/08/16 07:24:35;;;;;;;14.32;8.40;;;;;;;21.40;55.07;100850.06;4892843;28;124203;-71
2021/08/16 07:27:03;;;;;;;16.13;8.38;;;;;;;21.38;55.25;100841.25;4891637;28;123833;-70
2021/08/16 07:29:30;;;;;;;16.20;8.18;;;;;;;21.37;55.37;100848.47;4893261;28;115555;-70
2021/08/16 07:31:58;;;;;;;16.00;7.95;;;;;;;21.34;55.48;100846.06;4893615;28;115002;-71
2021/08/16 07:34:25;;;;;;;16.05;8.80;;;;;;;21.34;55.74;100843.38;4887962;28;123933;-70
2021/08/16 07:36:54;;;;;;;17.30;8.52;;;;;;;21.33;55.68;100840.81;4878315;28;122815;-70
2021/08/16 07:39:22;;;;;;;14.45;7.95;;;;;;;21.31;55.75;100834.72;4876932;28;113242;-69
2021/08/16 07:41:49;;;;;;;14.85;7.95;;;;;;;21.29;55.93;100842.09;4889877;28;113618;-70
2021/08/16 07:44:18;;;;;;;16.35;8.68;;;;;;;21.28;56.04;100837.69;4871097;28;124019;-69
2021/08/16 07:46:45;;;;;;;16.27;8.32;;;;;;;21.26;56.04;100848.59;4892433;28;123773;-70
2021/08/16 07:49:12;;;;;;;15.38;8.60;;;;;;;21.26;56.24;100848.59;4892739;28;114677;-70
2021/08/16 07:51:39;;;;;;;13.80;7.88;;;;;;;21.26;56.26;100847.75;4893629;28;114240;-70
2021/08/16 07:54:07;;;;;;;16.63;8.38;;;;;;;21.26;56.26;100853.13;4892479;28;124135;-69
2021/08/16 07:56:34;;;;;;;15.45;8.00;;;;;;;21.24;56.57;100857.81;4894259;28;124206;-69
2021/08/16 07:59:01;;;;;;;13.20;7.65;;;;;;;21.22;56.50;100851.72;4876689;28;113504;-69
2021/08/16 08:01:28;;;;;;;12.63;7.80;;;;;;;21.19;56.57;100847.44;4891149;28;114100;-69
2021/08/16 08:03:56;;;;;;;11.98;7.82;;;;;;;21.14;56.76;100850.56;4890134;28;123958;-69
2021/08/16 08:06:24;;;;;;;14.15;7.95;;;;;;;21.12;56.67;100863.31;4893412;28;123627;-70
2021/08/16 08:08:51;;;;;;;13.65;7.88;;;;;;;21.04;56.91;100865.84;4910982;23;113859;-67
2021/08/16 08:11:18;;;;;;;13.75;7.82;;;;;;;20.98;57.14;100882.53;4891554;28;113817;-67
2021/08/16 08:13:45;;;;;;;11.20;7.35;;;;;;;20.92;57.26;100883.06;4877603;28;123395;-67
2021/08/16 08:16:12;;;;;;;13.88;6.95;;;;;;;20.88;57.37;100884.34;4867812;28;123322;-68
2021/08/16 08:18:40;;;;;;;9.75;6.40;;;;;;;20.86;57.67;100878.22;4875225;28;115697;-68
2021/08/16 08:21:07;;;;;;;6.78;4.75;;;;;;;20.87;57.82;100885.31;4875920;28;114753;-68
2021/08/16 08:23:34;;;;;;;6.65;4.15;;;;;;;20.88;57.72;100878.94;4873372;28;123955;-67
2021/08/16 08:26:01;;;;;;;4.40;3.30;;;;;;;20.87;57.80;100879.91;4888667;28;124546;-67
2021/08/16 08:28:28;;;;;;;5.20;3.58;;;;;;;20.85;57.83;100892.66;4883831;28;113621;-67
2021/08/16 08:30:56;;;;;;;5.00;3.65;;;;;;;20.85;57.90;100892.66;4877700;28;114465;-67
2021/08/16 08:33:23;;;;;;;4.95;3.60;;;;;;;20.83;58.03;100894.66;4874917;28;124771;-67
2021/08/16 08:35:51;;;;;;;6.22;4.13;;;;;;;20.82;58.23;100904.56;4876600;28;123947;-67
2021/08/16 08:38:20;;;;;;;5.97;4.57;;;;;;;20.79;58.19;100907.53;4869403;28;114268;-68
2021/08/16 08:40:49;;;;;;;7.15;4.40;;;;;;;20.76;58.10;100922.09;4872932;28;114152;-69
2021/08/16 08:43:16;;;;;;;7.68;4.45;;;;;;;20.73;58.52;100927.75;4858905;28;124059;-68
2021/08/16 08:45:45;;;;;;;5.25;3.92;;;;;;;20.72;58.56;100942.22;4874142;28;123764;-69
2021/08/16 08:48:13;;;;;;;3.75;2.42;;;;;;;20.69;58.49;100939.78;4881876;28;114600;-69
2021/08/16 08:50:41;;;;;;;3.45;2.38;;;;;;;20.62;58.42;100952.03;4876189;28;114513;-69
2021/08/16 08:53:08;;;;;;;3.90;1.88;;;;;;;20.56;58.43;100957.94;4876050;28;124129;-68
2021/08/16 08:55:35;;;;;;;3.22;1.90;;;;;;;20.50;58.37;100953.91;4883778;28;124637;-69
2021/08/16 08:58:19;;;;;;;3.40;1.60;;;;;;;20.45;58.35;100966.06;4870289;28;114269;-68
2021/08/16 09:00:47;;;;;;;2.53;1.48;;;;;;;20.36;58.24;100968.56;4888417;28;114065;-67
2021/08/16 09:03:14;;;;;;;2.72;1.63;;;;;;;20.29;58.35;100972.75;4872406;28;124198;-68
2021/08/16 09:05:47;;;;;;;3.95;1.80;;;;;;;20.23;58.27;100967.88;4887113;28;124708;-68
2021/08/16 09:08:24;;;;;;;2.60;1.60;;;;;;;20.16;58.06;100967.53;4883811;28;115269;-68
2021/08/16 09:10:52;;;;;;;4.65;2.10;;;;;;;20.14;58.26;100968.66;4873550;28;115309;-68
2021/08/16 09:13:25;;;;;;;4.82;2.38;;;;;;;20.11;58.39;100968.91;4876789;28;124273;-68
2021/08/16 09:15:54;;;;;;;3.22;2.08;;;;;;;20.10;58.43;100973.44;4871549;28;123696;-68
2021/08/16 09:18:32;;;;;;;5.53;1.95;;;;;;;20.12;58.67;100973.31;4858979;28;113230;-69
2021/08/16 09:20:59;;;;;;;4.38;2.13;;;;;;;20.16;58.76;100972.06;4861143;28;114000;-69
2021/08/16 09:23:28;;;;;;;5.07;2.42;;;;;;;20.19;58.82;100980.72;4883300;28;123940;-68
2021/08/16 09:25:57;;;;;;;5.63;2.70;;;;;;;20.23;58.99;100973.28;4859162;28;123948;-68
2021/08/16 09:28:29;;;;;;;3.83;2.40;;;;;;;20.30;59.01;100979.81;4877471;28;114501;-69
2021/08/16 09:31:09;;;;;;;4.90;2.28;;;;;;;20.38;59.36;100976.47;4879387;28;113859;-69
2021/08/16 09:33:57;;;;;;;6.95;2.58;;;;;;;20.52;59.47;100983.41;4878365;28;124473;-69
2021/08/16 09:36:38;;;;;;;5.05;2.63;;;;;;;20.64;59.44;100976.97;4875880;28;124340;-67
2021/08/16 09:39:21;;;;;;;6.22;2.40;;;;;;;20.75;59.28;100985.00;4893027;28;114459;-67
2021/08/16 09:41:59;;;;;;;4.35;2.05;;;;;;;20.83;59.01;100980.78;4868430;28;112945;-67
2021/08/16 09:44:27;;;;;;;6.22;2.47;;;;;;;20.86;58.77;100980.53;4881445;28;123890;-67
2021/08/16 09:47:05;;;;;;;4.53;2.40;;;;;;;20.87;58.41;100982.22;4881050;28;123914;-67
2021/08/16 09:49:33;;;;;;;5.10;2.20;;;;;;;20.86;58.29;100983.22;4876769;28;114152;-67
2021/08/16 09:52:02;;;;;;;6.63;2.47;;;;;;;20.87;58.37;100982.22;4866614;28;113189;-68
2021/08/16 09:54:31;;;;;;;4.95;2.65;;;;;;;20.92;58.51;100986.22;4864582;28;123477;-68
2021/08/16 09:57:01;;;;;;;5.38;2.80;;;;;;;20.97;58.75;100999.31;4875631;28;123310;-68
2021/08/16 09:59:31;;;;;;;4.43;2.85;;;;;;;21.03;58.56;100996.06;4879396;28;115102;-68
2021/08/16 10:02:02;;;;;;;5.15;2.97;;;;;;;21.07;58.52;100994.81;4876129;28;114832;-68
2021/08/16 10:04:32;;;;;;;6.18;3.00;;;;;;;21.12;58.56;100992.59;4879196;28;124305;-68
2021/08/16 10:07:02;;;;;;;6.32;2.88;;;;;;;21.15;58.34;100992.34;4878991;28;123971;-68
2021/08/16 10:09:49;;;;;;;8.90;2.92;;;;;;;21.18;58.25;101004.66;4875666;28;115020;-68
2021/08/16 10:12:17;;;;;;;4.25;2.53;;;;;;;21.19;58.08;101012.63;4883276;28;114245;-68
2021/08/16 10:14:46;;;;;;;6.13;2.75;;;;;;;21.17;57.96;101017.28;4879146;28;123828;-68
2021/08/16 10:17:26;;;;;;;6.72;3.00;;;;;;;21.15;57.97;101013.00;4866025;28;123953;-68
2021/08/16 10:19:54;;;;;;;6.40;3.00;;;;;;;21.14;57.95;101017.53;4876532;28;114269;-67
2021/08/16 10:22:22;;;;;;;5.97;2.72;;;;;;;21.15;57.84;101013.88;4862351;28;113794;-68
2021/08/16 10:24:49;;;;;;;5.65;2.80;;;;;;;21.16;57.92;101015.56;4843526;28;123637;-68
2021/08/16 10:27:16;;;;;;;5.88;2.65;;;;;;;21.16;57.74;101010.19;4875729;28;123732;-68
2021/08/16 10:29:47;;;;;;;5.30;2.90;;;;;;;21.16;57.72;101020.94;4877322;28;114553;-68
2021/08/16 10:32:19;;;;;;;7.55;3.22;;;;;;;21.16;57.62;101033.56;4866864;28;114437;-67
2021/08/16 10:34:47;;;;;;;8.70;3.30;;;;;;;21.15;57.57;101030.03;4891721;28;123949;-67
2021/08/16 10:37:16;;;;;;;7.15;3.17;;;;;;;21.14;57.59;101027.47;4889974;28;124595;-68
2021/08/16 10:39:49;;;;;;;7.25;3.15;;;;;;;21.12;57.61;101041.06;4878981;28;113460;-68
2021/08/16 10:42:18;;;;;;;9.02;3.53;;;;;;;21.12;57.74;101041.06;4873765;28;113007;-68
2021/08/16 10:44:47;;;;;;;5.65;3.30;;;;;;;21.14;57.80;101038.25;4887126;28;124258;-68
2021/08/16 10:47:29;;;;;;;7.57;3.28;;;;;;;21.17;57.99;101041.53;4870550;28;123856;-68
2021/08/16 10:50:10;;;;;;;7.93;3.30;;;;;;;21.22;57.76;101040.28;4886183;28;115185;-68
2021/08/16 10:52:41;;;;;;;7.95;3.20;;;;;;;21.26;57.87;101052.47;4859647;28;115523;-68
2021/08/16 10:55:23;;;;;;;8.95;3.30;;;;;;;21.29;57.67;101041.44;4875196;28;124032;-67
2021/08/16 10:57:51;;;;;;;8.48;3.42;;;;;;;21.32;57.58;101051.94;4885888;28;123988;-67
2021/08/16 11:00:19;;;;;;;9.73;3.72;;;;;;;21.30;57.10;101053.91;4865745;28;113457;-67
2021/08/16 11:02:53;;;;;;;7.47;3.42;;;;;;;21.22;56.65;101048.34;4882113;28;114675;-67
2021/08/16 11:05:29;;;;;;;7.95;3.28;;;;;;;21.11;56.25;101055.50;4878264;28;124114;-67
2021/08/16 11:08:01;;;;;;;10.00;3.90;;;;;;;20.99;56.13;101052.03;4851590;28;123216;-68
2021/08/16 11:10:48;;;;;;;6.45;3.72;;;;;;;20.87;56.14;101063.00;4875852;28;114235;-67
2021/08/16 11:13:19;;;;;;;8.95;4.10;;;;;;;20.84;56.21;101068.66;4860039;28;113763;-67
2021/08/16 11:15:49;;;;;;;12.93;4.50;;;;;;;20.82;56.23;101062.56;4886332;28;124132;-66
2021/08/16 11:18:21;;;;;;;8.95;4.45;;;;;;;20.82;56.44;101070.63;4881767;28;123968;-66
2021/08/16 11:21:00;;;;;;;9.88;3.85;;;;;;;20.85;56.28;101071.22;4878946;28;114610;-65